createdAt,value
2023-01-05T00:01:54.298Z,42.37
2023-01-05T00:04:20.852Z,42.39
2023-01-05T00:06:47.355Z,42.49
2023-01-05T00:09:15.859Z,42.22
2023-01-05T00:12:17.693Z,42.33
2023-01-05T00:15:02.758Z,42.22
2023-01-05T00:17:47.674Z,42.19
2023-01-05T00:20:34.447Z,42.51
2023-01-05T00:23:00.951Z,42.48
2023-01-05T00:25:29.237Z,42.47
2023-01-05T00:27:57.999Z,42.50
2023-01-05T00:30:26.711Z,42.30
2023-01-05T00:32:53.249Z,42.49
2023-01-05T00:35:19.778Z,42.29
2023-01-05T00:37:46.273Z,42.29
2023-01-05T00:40:14.619Z,42.24
2023-01-05T00:42:41.124Z,42.43
2023-01-05T00:45:08.639Z,42.47
2023-01-05T00:47:35.126Z,42.41
2023-01-05T00:50:01.629Z,42.29
2023-01-05T00:52:28.143Z,42.19
2023-01-05T00:54:54.601Z,42.31
2023-01-05T00:57:21.046Z,42.10
2023-01-05T00:59:47.511Z,42.12
2023-01-05T01:02:14.129Z,42.00
2023-01-05T01:04:40.621Z,42.15
2023-01-05T01:07:07.171Z,41.97
2023-01-05T01:09:33.850Z,42.03
2023-01-05T01:12:00.396Z,42.08
2023-01-05T01:14:27.077Z,42.16
2023-01-05T01:16:53.635Z,41.97
2023-01-05T01:19:21.786Z,42.04
2023-01-05T01:21:48.423Z,41.98
2023-01-05T01:24:19.926Z,42.04
2023-01-05T01:26:46.519Z,42.04
2023-01-05T01:29:12.987Z,42.01
2023-01-05T01:31:39.601Z,41.96
2023-01-05T01:34:06.097Z,42.05
2023-01-05T01:36:32.571Z,42.16
2023-01-05T01:38:59.025Z,42.00
2023-01-05T01:41:25.495Z,42.03
2023-01-05T01:43:53.284Z,42.12
2023-01-05T01:46:20.192Z,42.00
2023-01-05T01:48:54.538Z,41.94
2023-01-05T01:51:24.607Z,42.00
2023-01-05T01:53:52.718Z,41.88
2023-01-05T01:56:20.784Z,41.82
2023-01-05T01:58:47.229Z,41.97
2023-01-05T02:01:13.790Z,42.06
2023-01-05T02:03:40.703Z,41.95
2023-01-05T02:06:07.227Z,41.89
2023-01-05T02:08:33.935Z,41.93
2023-01-05T02:11:37.522Z,41.67
2023-01-05T02:14:45.705Z,41.99
2023-01-05T02:17:40.224Z,41.89
2023-01-05T02:20:25.652Z,41.92
2023-01-05T02:23:18.851Z,41.75
2023-01-05T02:26:10.209Z,41.80
2023-01-05T02:29:03.887Z,41.77
2023-01-05T02:31:40.992Z,41.78
2023-01-05T02:34:14.514Z,41.70
2023-01-05T02:37:08.296Z,41.93
2023-01-05T02:39:59.776Z,41.75
2023-01-05T02:42:27.722Z,41.77
2023-01-05T02:44:54.203Z,41.81
2023-01-05T02:47:27.651Z,41.79
2023-01-05T02:50:01.655Z,41.66
2023-01-05T02:52:28.128Z,41.62
2023-01-05T02:54:59.337Z,41.79
2023-01-05T02:57:50.867Z,41.63
2023-01-05T03:00:32.717Z,41.56
2023-01-05T03:03:06.595Z,41.73
2023-01-05T03:05:40.296Z,41.63
2023-01-05T03:08:25.019Z,41.20
2023-01-05T03:11:22.891Z,41.03
2023-01-05T03:13:54.226Z,40.72
2023-01-05T03:16:39.853Z,40.77
2023-01-05T03:19:32.301Z,40.52
2023-01-05T03:22:20.607Z,40.36
2023-01-05T03:25:05.695Z,40.35
2023-01-05T03:27:50.776Z,40.40
2023-01-05T03:30:35.822Z,40.38
2023-01-05T03:33:28.502Z,40.58
2023-01-05T03:35:56.613Z,40.62
2023-01-05T03:38:31.843Z,40.30
2023-01-05T03:40:59.504Z,40.37
2023-01-05T03:43:25.994Z,40.10
2023-01-05T03:45:56.571Z,40.14
2023-01-05T03:48:23.590Z,39.97
2023-01-05T03:50:50.055Z,40.07
2023-01-05T03:53:16.519Z,40.14
2023-01-05T03:55:42.975Z,40.08
2023-01-05T03:58:09.458Z,40.27
2023-01-05T04:00:35.946Z,40.15
2023-01-05T04:03:02.502Z,39.97
2023-01-05T04:05:29.027Z,40.00
2023-01-05T04:07:55.481Z,39.81
2023-01-05T04:10:22.148Z,39.70
2023-01-05T04:12:49.296Z,39.46
2023-01-05T04:15:15.776Z,39.54
2023-01-05T04:17:42.517Z,39.70
2023-01-05T04:20:09.482Z,39.76
2023-01-05T04:22:36.220Z,39.47
2023-01-05T04:25:02.680Z,39.56
2023-01-05T04:27:29.129Z,39.72
2023-01-05T04:29:55.596Z,39.64
2023-01-05T04:32:22.088Z,39.59
2023-01-05T04:34:48.531Z,39.75
2023-01-05T04:37:15.024Z,39.60
2023-01-05T04:39:41.514Z,39.47
2023-01-05T04:42:07.976Z,39.68
2023-01-05T04:44:34.657Z,39.60
2023-01-05T04:47:01.209Z,39.73
2023-01-05T04:49:27.911Z,39.72
2023-01-05T04:51:54.385Z,39.62
2023-01-05T04:54:20.886Z,39.87
2023-01-05T04:56:47.594Z,39.94
2023-01-05T04:59:14.046Z,39.79
2023-01-05T05:01:40.560Z,39.95
2023-01-05T05:04:07.083Z,39.98
2023-01-05T05:06:33.557Z,40.01
2023-01-05T05:09:00.028Z,40.18
2023-01-05T05:11:26.489Z,39.90
2023-01-05T05:13:52.946Z,40.04
2023-01-05T05:16:19.426Z,39.76
2023-01-05T05:18:45.956Z,39.57
2023-01-05T05:21:12.451Z,39.51
2023-01-05T05:23:38.904Z,39.37
2023-01-05T05:26:05.445Z,39.48
2023-01-05T05:28:31.911Z,39.32
2023-01-05T05:30:58.810Z,39.26
2023-01-05T05:33:25.399Z,39.57
2023-01-05T05:35:51.884Z,39.41
2023-01-05T05:38:18.620Z,39.59
2023-01-05T05:40:45.106Z,39.32
2023-01-05T05:43:11.550Z,39.30
2023-01-05T05:45:38.023Z,39.42
2023-01-05T05:48:05.616Z,39.41
2023-01-05T05:50:32.693Z,39.44
2023-01-05T05:52:59.791Z,39.46
2023-01-05T05:55:26.240Z,39.27
2023-01-05T05:57:52.700Z,39.31
2023-01-05T06:00:19.211Z,39.52
2023-01-05T06:02:45.820Z,39.50
2023-01-05T06:05:12.388Z,39.56
2023-01-05T06:07:38.839Z,39.68
2023-01-05T06:10:05.732Z,39.64
2023-01-05T06:12:32.861Z,39.67
2023-01-05T06:14:59.462Z,39.68
2023-01-05T06:17:25.919Z,39.86
2023-01-05T06:19:52.390Z,39.86
2023-01-05T06:22:18.921Z,39.82
2023-01-05T06:24:45.389Z,39.49
2023-01-05T06:27:12.257Z,39.44
2023-01-05T06:29:38.777Z,39.10
2023-01-05T06:32:05.476Z,39.19
2023-01-05T06:34:32.175Z,39.33
2023-01-05T06:37:02.204Z,39.26
2023-01-05T06:39:29.080Z,39.22
2023-01-05T06:41:55.531Z,39.11
2023-01-05T06:44:22.010Z,39.34
2023-01-05T06:46:48.480Z,39.17
2023-01-05T06:49:15.288Z,39.15
2023-01-05T06:51:42.036Z,39.18
2023-01-05T06:54:08.536Z,39.47
2023-01-05T06:56:34.993Z,39.49
2023-01-05T06:59:01.497Z,39.56
2023-01-05T07:01:28.012Z,39.44
2023-01-05T07:03:54.619Z,39.28
2023-01-05T07:06:21.374Z,39.39
2023-01-05T07:08:47.829Z,39.46
2023-01-05T07:11:14.356Z,39.41
2023-01-05T07:13:40.876Z,39.67
2023-01-05T07:16:08.618Z,39.81
2023-01-05T07:18:35.213Z,39.81
2023-01-05T07:21:01.699Z,39.92
2023-01-05T07:23:29.908Z,40.02
2023-01-05T07:25:56.357Z,40.05
2023-01-05T07:28:22.846Z,40.00
2023-01-05T07:30:52.507Z,39.74
2023-01-05T07:33:19.271Z,39.65
2023-01-05T07:35:45.744Z,39.36
2023-01-05T07:38:12.214Z,39.47
2023-01-05T07:40:38.919Z,39.42
2023-01-05T07:43:05.385Z,39.37
2023-01-05T07:45:31.887Z,39.31
2023-01-05T07:47:59.996Z,39.27
2023-01-05T07:50:26.836Z,39.32
2023-01-05T07:52:53.416Z,39.14
2023-01-05T07:55:19.928Z,39.23
2023-01-05T07:57:47.452Z,39.53
2023-01-05T08:00:14.969Z,39.27
2023-01-05T08:02:42.167Z,39.29
2023-01-05T08:05:08.976Z,39.42
2023-01-05T08:07:35.994Z,39.31
2023-01-05T08:10:21.397Z,39.27
2023-01-05T08:13:06.252Z,39.33
2023-01-05T08:15:32.734Z,39.40
2023-01-05T08:17:59.392Z,39.35
2023-01-05T08:20:25.854Z,39.57
2023-01-05T08:22:52.776Z,39.34
2023-01-05T08:25:19.516Z,39.44
2023-01-05T08:27:46.420Z,39.44
2023-01-05T08:30:13.196Z,39.38
2023-01-05T08:32:40.312Z,39.36
2023-01-05T08:35:07.092Z,39.32
2023-01-05T08:37:33.541Z,39.42
2023-01-05T08:40:00.013Z,39.33
2023-01-05T08:42:29.131Z,39.28
2023-01-05T08:44:55.591Z,39.25
2023-01-05T08:47:27.816Z,39.49
2023-01-05T08:49:54.768Z,39.38
2023-01-05T08:52:23.107Z,39.49
2023-01-05T08:54:49.784Z,39.25
2023-01-05T08:57:16.254Z,39.47
2023-01-05T08:59:42.753Z,39.48
2023-01-05T09:02:12.470Z,39.37
2023-01-05T09:04:39.079Z,39.34
2023-01-05T09:07:05.614Z,39.60
2023-01-05T09:09:32.129Z,39.63
2023-01-05T09:11:58.592Z,39.45
2023-01-05T09:14:25.055Z,39.59
2023-01-05T09:17:08.036Z,39.38
2023-01-05T09:19:34.929Z,38.87
2023-01-05T09:22:01.395Z,39.33
2023-01-05T09:24:27.876Z,39.10
2023-01-05T09:26:54.460Z,39.07
2023-01-05T09:29:21.002Z,38.95
2023-01-05T09:31:47.499Z,39.08
2023-01-05T09:34:13.998Z,39.14
2023-01-05T09:36:40.506Z,39.55
2023-01-05T09:39:07.141Z,39.39
2023-01-05T09:41:45.005Z,39.62
2023-01-05T09:44:30.410Z,39.31
2023-01-05T09:47:13.944Z,39.02
2023-01-05T09:49:40.422Z,38.73
2023-01-05T09:52:09.375Z,38.60
2023-01-05T09:54:36.745Z,38.75
2023-01-05T09:57:09.475Z,38.68
2023-01-05T09:59:41.981Z,38.74
2023-01-05T10:02:39.351Z,38.75
2023-01-05T10:05:06.295Z,38.67
2023-01-05T10:07:43.212Z,38.60
2023-01-05T10:10:45.411Z,38.65
2023-01-05T10:13:21.930Z,38.49
2023-01-05T10:15:51.236Z,38.42
2023-01-05T10:18:19.201Z,38.41
2023-01-05T10:21:10.725Z,38.24
2023-01-05T10:23:56.060Z,38.50
2023-01-05T10:26:51.045Z,38.39
2023-01-05T10:29:20.685Z,38.30
2023-01-05T10:32:03.510Z,37.07
2023-01-05T10:34:49.605Z,36.73
2023-01-05T10:37:35.194Z,37.99
2023-01-05T10:40:03.807Z,38.51
2023-01-05T10:42:40.902Z,38.37
2023-01-05T10:45:12.679Z,38.37
2023-01-05T10:47:39.240Z,38.34
2023-01-05T10:50:18.316Z,38.40
2023-01-05T10:52:45.711Z,38.83
2023-01-05T10:55:15.216Z,39.33
2023-01-05T10:57:42.204Z,39.85
2023-01-05T11:00:16.635Z,40.52
2023-01-05T11:02:47.465Z,46.96
2023-01-05T11:05:39.618Z,42.64
2023-01-05T11:08:07.431Z,41.14
2023-01-05T11:11:00.595Z,40.94
2023-01-05T11:13:36.083Z,41.10
2023-01-05T11:16:12.847Z,40.91
2023-01-05T11:18:47.108Z,40.97
2023-01-05T11:21:19.335Z,40.73
2023-01-05T11:23:53.118Z,40.53
2023-01-05T11:26:19.466Z,40.54
2023-01-05T11:29:12.399Z,40.77
2023-01-05T11:31:49.517Z,40.46
2023-01-05T11:34:38.242Z,40.29
2023-01-05T11:37:08.329Z,40.43
2023-01-05T11:39:47.170Z,40.28
2023-01-05T11:42:27.602Z,40.35
2023-01-05T11:44:57.018Z,40.33
2023-01-05T11:47:27.819Z,40.27
2023-01-05T11:50:21.694Z,40.30
2023-01-05T11:52:53.918Z,40.09
2023-01-05T11:55:20.258Z,40.34
2023-01-05T11:57:47.574Z,40.24
2023-01-05T12:00:33.592Z,39.87
2023-01-05T12:03:28.280Z,39.72
2023-01-05T12:05:58.297Z,39.80
2023-01-05T12:08:47.610Z,39.78
2023-01-05T12:11:16.831Z,39.73
2023-01-05T12:14:01.569Z,39.96
2023-01-05T12:16:43.134Z,40.08
2023-01-05T12:19:16.881Z,40.00
2023-01-05T12:22:12.565Z,40.23
2023-01-05T12:24:56.732Z,40.17
2023-01-05T12:27:35.090Z,40.13
2023-01-05T12:36:15.455Z,39.92
2023-01-05T12:38:48.935Z,39.94
2023-01-05T12:41:19.204Z,39.92
2023-01-05T12:44:17.577Z,39.72
2023-01-05T12:47:03.375Z,39.42
2023-01-05T12:49:38.607Z,39.22
2023-01-05T12:52:15.972Z,39.07
2023-01-05T12:54:56.411Z,38.95
2023-01-05T12:57:32.393Z,39.04
2023-01-05T13:00:01.576Z,38.94
2023-01-05T13:02:35.131Z,39.25
2023-01-05T13:05:22.756Z,38.68
2023-01-05T13:08:04.880Z,38.72
2023-01-05T13:10:52.499Z,38.60
2023-01-05T13:13:38.696Z,38.79
2023-01-05T13:16:06.357Z,38.65
2023-01-05T13:18:32.854Z,38.86
2023-01-05T13:21:06.875Z,38.78
2023-01-05T13:23:44.500Z,38.69
2023-01-05T13:26:11.837Z,38.77
2023-01-05T13:28:38.298Z,39.01
2023-01-05T13:31:12.934Z,38.80
2023-01-05T13:33:59.264Z,38.98
2023-01-05T13:36:46.423Z,39.03
2023-01-05T13:39:29.773Z,38.93
2023-01-05T13:42:09.780Z,38.96
2023-01-05T13:45:04.497Z,38.75
2023-01-05T13:48:07.511Z,38.90
2023-01-05T13:51:07.925Z,38.84
2023-01-05T13:53:36.555Z,38.88
2023-01-05T13:56:06.127Z,38.75
2023-01-05T13:58:32.500Z,38.77
2023-01-05T14:00:58.975Z,38.79
2023-01-05T14:03:29.582Z,38.93
2023-01-05T14:05:57.634Z,38.74
2023-01-05T14:08:34.623Z,38.91
2023-01-05T14:11:15.748Z,38.83
2023-01-05T14:13:52.132Z,38.91
2023-01-05T14:16:43.663Z,39.02
2023-01-05T14:19:18.869Z,38.85
2023-01-05T14:21:53.745Z,39.01
2023-01-05T14:27:12.641Z,39.29
2023-01-05T14:29:45.226Z,39.18
2023-01-05T14:32:26.076Z,39.11
2023-01-05T14:37:42.787Z,39.54
2023-01-05T14:40:33.292Z,39.19
2023-01-05T14:43:00.720Z,39.28
2023-01-05T14:45:29.020Z,39.20
2023-01-05T14:47:56.767Z,39.04
2023-01-05T14:50:27.550Z,38.93
2023-01-05T14:52:55.342Z,39.36
2023-01-05T14:55:38.689Z,39.05
2023-01-05T14:58:35.527Z,39.46
2023-01-05T15:01:17.847Z,39.27
2023-01-05T15:04:11.348Z,39.43
2023-01-05T15:06:49.381Z,39.34
2023-01-05T15:09:34.409Z,39.42
2023-01-05T15:12:06.821Z,39.99
2023-01-05T15:14:39.922Z,39.61
2023-01-05T15:17:34.482Z,39.50
2023-01-05T15:20:23.670Z,39.40
2023-01-05T15:23:44.394Z,39.50
2023-01-05T15:26:28.423Z,39.63
2023-01-05T15:29:15.496Z,39.66
2023-01-05T15:31:52.343Z,39.57
2023-01-05T15:34:23.601Z,39.47
2023-01-05T15:37:01.308Z,39.40
2023-01-05T15:39:32.798Z,39.65
2023-01-05T15:42:06.407Z,39.70
2023-01-05T15:44:36.292Z,39.72
2023-01-05T15:47:02.851Z,39.37
2023-01-05T15:49:30.266Z,39.30
2023-01-05T15:51:56.803Z,39.68
2023-01-05T15:54:25.612Z,39.82
2023-01-05T15:56:52.150Z,39.70
2023-01-05T15:59:23.255Z,39.62
2023-01-05T16:01:49.715Z,39.61
2023-01-05T16:04:16.211Z,39.45
2023-01-05T16:06:46.599Z,40.07
2023-01-05T16:09:34.036Z,40.01
2023-01-05T16:12:23.179Z,39.97
2023-01-05T16:14:57.694Z,40.10
2023-01-05T16:17:26.220Z,39.94
2023-01-05T16:19:55.989Z,40.03
2023-01-05T16:22:31.423Z,40.23
2023-01-05T16:24:59.531Z,40.15
2023-01-05T16:27:26.056Z,40.18
2023-01-05T16:29:52.555Z,40.62
2023-01-05T16:32:37.233Z,40.16
2023-01-05T16:35:40.348Z,40.63
2023-01-05T16:38:12.867Z,40.38
2023-01-05T16:40:48.200Z,40.22
2023-01-05T16:43:21.074Z,40.15
2023-01-05T16:45:47.644Z,40.46
2023-01-05T16:48:46.811Z,40.33
2023-01-05T16:51:22.717Z,40.11
2023-01-05T16:53:54.229Z,40.23
2023-01-05T16:56:22.525Z,40.36
2023-01-05T16:58:49.015Z,40.27
2023-01-05T17:01:35.628Z,40.37
2023-01-05T17:04:12.162Z,40.40
2023-01-05T17:06:38.679Z,40.08
2023-01-05T17:09:09.251Z,40.09
2023-01-05T17:11:36.613Z,40.40
2023-01-05T17:14:03.752Z,40.12
2023-01-05T17:16:30.468Z,40.42
2023-01-05T17:18:59.359Z,40.48
2023-01-05T17:21:28.934Z,40.80
2023-01-05T17:23:59.332Z,40.81
2023-01-05T17:26:28.302Z,41.02
2023-01-05T17:28:59.026Z,41.19
2023-01-05T17:31:25.486Z,41.33
2023-01-05T17:33:51.949Z,41.77
2023-01-05T17:36:18.705Z,41.47
2023-01-05T17:38:46.572Z,41.78
2023-01-05T17:41:15.915Z,41.63
2023-01-05T17:43:43.421Z,41.74
2023-01-05T17:46:11.086Z,41.16
2023-01-05T17:48:38.453Z,41.54
2023-01-05T17:51:05.072Z,41.87
2023-01-05T17:53:31.599Z,41.73
2023-01-05T17:55:58.052Z,41.72
2023-01-05T17:58:26.542Z,41.64
2023-01-05T18:00:53.863Z,41.46
2023-01-05T18:03:22.465Z,41.59
2023-01-05T18:05:51.257Z,41.50
2023-01-05T18:08:18.669Z,41.63
2023-01-05T18:10:45.280Z,41.53
2023-01-05T18:13:11.908Z,41.13
2023-01-05T18:15:44.899Z,41.94
2023-01-05T18:18:11.582Z,41.63
2023-01-05T18:20:39.911Z,41.79
2023-01-05T18:25:38.881Z,41.52
2023-01-05T18:28:05.670Z,41.54
2023-01-05T18:30:32.248Z,41.73
2023-01-05T18:32:58.706Z,41.39
2023-01-05T18:35:25.231Z,41.18
2023-01-05T18:37:51.727Z,41.10
2023-01-05T18:40:18.249Z,40.71
2023-01-05T18:42:44.730Z,40.51
2023-01-05T18:45:18.882Z,40.68
2023-01-05T18:47:46.562Z,40.20
2023-01-05T18:50:13.090Z,39.69
2023-01-05T18:52:39.912Z,39.53
2023-01-05T18:55:06.461Z,39.68
2023-01-05T18:57:33.255Z,40.03
2023-01-05T18:59:59.984Z,39.62
2023-01-05T19:02:27.361Z,39.53
2023-01-05T19:04:55.840Z,39.47
2023-01-05T19:07:22.405Z,39.50
2023-01-05T19:09:49.123Z,39.31
2023-01-05T19:12:15.612Z,39.44
2023-01-05T19:14:42.077Z,39.28
2023-01-05T19:17:08.578Z,39.37
2023-01-05T19:19:35.043Z,39.08
2023-01-05T19:22:01.609Z,39.42
2023-01-05T19:24:28.088Z,39.39
2023-01-05T19:26:54.725Z,39.57
2023-01-05T19:29:21.235Z,39.59
2023-01-05T19:31:49.086Z,39.65
2023-01-05T19:34:18.616Z,39.31
2023-01-05T19:36:46.102Z,39.56
2023-01-05T19:39:15.027Z,39.31
2023-01-05T19:41:43.146Z,39.18
2023-01-05T19:44:14.680Z,39.24
2023-01-05T19:46:41.218Z,39.46
2023-01-05T19:49:09.286Z,39.56
2023-01-05T19:51:35.750Z,39.56
2023-01-05T19:54:03.726Z,39.40
2023-01-05T19:56:33.942Z,39.19
2023-01-05T19:59:05.054Z,39.29
2023-01-05T20:01:34.393Z,39.31
2023-01-05T20:04:00.934Z,39.52
2023-01-05T20:06:29.171Z,39.44
2023-01-05T20:08:57.698Z,39.39
2023-01-05T20:11:40.412Z,39.14
2023-01-05T20:14:10.650Z,39.59
2023-01-05T20:16:37.229Z,39.58
2023-01-05T20:19:04.073Z,39.27
2023-01-05T20:21:32.375Z,39.51
2023-01-05T20:24:01.137Z,39.45
2023-01-05T20:26:28.758Z,39.30
2023-01-05T20:29:01.362Z,39.24
2023-01-05T20:31:33.259Z,39.22
2023-01-05T20:34:04.972Z,39.31
2023-01-05T20:36:31.587Z,39.74
2023-01-05T20:38:58.437Z,39.57
2023-01-05T20:41:27.388Z,39.56
2023-01-05T20:43:54.368Z,39.19
2023-01-05T20:46:22.177Z,39.21
2023-01-05T20:48:49.404Z,39.53
2023-01-05T20:51:15.997Z,39.64
2023-01-05T20:53:42.537Z,39.65
2023-01-05T20:56:16.004Z,39.31
2023-01-05T20:58:43.059Z,38.70
2023-01-05T21:01:11.636Z,38.78
2023-01-05T21:03:38.802Z,38.52
2023-01-05T21:06:05.963Z,38.61
2023-01-05T21:08:32.456Z,38.32
2023-01-05T21:10:59.457Z,38.05
2023-01-05T21:13:31.943Z,38.21
2023-01-05T21:16:02.329Z,38.10
2023-01-05T21:18:28.832Z,38.21
2023-01-05T21:20:55.350Z,37.87
2023-01-05T21:23:21.912Z,37.91
2023-01-05T21:26:06.475Z,37.92
2023-01-05T21:28:37.270Z,37.69
2023-01-05T21:31:05.009Z,37.82
2023-01-05T21:33:31.757Z,37.34
2023-01-05T21:35:58.247Z,37.70
2023-01-05T21:38:24.836Z,37.85
2023-01-05T21:40:51.329Z,37.59
2023-01-05T21:43:17.790Z,37.71
2023-01-05T21:45:44.341Z,37.69
2023-01-05T21:48:10.862Z,37.67
2023-01-05T21:50:57.879Z,38.03
2023-01-05T21:53:42.943Z,37.46
2023-01-05T21:56:25.687Z,37.79
2023-01-05T21:58:53.317Z,37.65
2023-01-05T22:01:19.906Z,37.75
2023-01-05T22:03:46.557Z,37.87
2023-01-05T22:06:13.049Z,37.72
2023-01-05T22:08:39.529Z,37.76
2023-01-05T22:11:06.002Z,37.97
2023-01-05T22:13:32.571Z,37.53
2023-01-05T22:15:59.107Z,37.75
2023-01-05T22:18:25.704Z,37.91
2023-01-05T22:20:59.249Z,37.62
2023-01-05T22:23:27.183Z,37.79
2023-01-05T22:26:08.318Z,37.97
2023-01-05T22:28:35.910Z,37.89
2023-01-05T22:31:10.154Z,38.09
2023-01-05T22:33:38.069Z,38.05
2023-01-05T22:36:05.462Z,37.75
2023-01-05T22:38:35.384Z,38.04
2023-01-05T22:41:01.938Z,38.11
2023-01-05T22:43:29.295Z,37.87
2023-01-05T22:46:01.377Z,38.07
2023-01-05T22:48:27.980Z,37.92
2023-01-05T22:50:54.456Z,38.04
2023-01-05T22:53:20.964Z,37.96
2023-01-05T22:55:47.416Z,38.16
2023-01-05T22:58:13.894Z,38.06
2023-01-05T23:00:40.386Z,38.00
2023-01-05T23:03:06.906Z,37.92
2023-01-05T23:05:33.392Z,38.41
2023-01-05T23:07:59.860Z,38.22
2023-01-05T23:10:27.652Z,38.13
2023-01-05T23:12:54.443Z,37.82
2023-01-05T23:15:20.940Z,38.17
2023-01-05T23:17:47.402Z,38.34
2023-01-05T23:20:14.047Z,38.46
2023-01-05T23:22:40.698Z,38.12
2023-01-05T23:25:07.442Z,38.44
2023-01-05T23:27:33.925Z,38.17
2023-01-05T23:30:00.395Z,38.28
2023-01-05T23:32:26.869Z,38.12
2023-01-05T23:34:53.342Z,38.49
2023-01-05T23:37:19.807Z,37.96
2023-01-05T23:39:46.285Z,38.41
2023-01-05T23:42:32.705Z,37.93
2023-01-05T23:44:59.488Z,37.89
2023-01-05T23:47:25.950Z,38.16
2023-01-05T23:49:52.446Z,38.26
2023-01-05T23:52:18.936Z,38.20
2023-01-05T23:54:45.418Z,37.72
2023-01-05T23:57:11.886Z,37.95
2023-01-05T23:59:38.412Z,38.05
